Little Egg Harbor, New Jersey
Current Conditions -  °F | °C
As of 4:54 PM on Friday 24 Oct 2014 (Local Time) from KACY Reporting Station
Clear Clear  
Wind Chill: 65°   Ceiling: Unl
Heat Index: 65°   Visibility: 10mi
Dew Point: 46°   Wind: 13mph
Humidity: 50%   Direction: 290°WNW
Pressure: 29.8"   Gusts: NA
Location:  39.6187°N, 74.3847°W
Report Text: KACY 242054Z 29011KT 10SM CLR 18/08 A2980 RMK AO2 SLP089 T01830078 55001
Loading
Personal Weather Stations






























Interactive Weather Map
Tropical Storm Tracking
New forecast layout! Learn more

10-Day Weather Forecast

Advertisements
Track Severe Weather on mobile